sensor_id;sensor_type;location;lat;lon;timestamp;temperature;humidity
19248;DHT22;9758;48.640;8.148;2023-04-26T00:00:18;10.50;55.20
19248;DHT22;9758;48.640;8.148;2023-04-26T00:02:46;10.50;55.30
19248;DHT22;9758;48.640;8.148;2023-04-26T00:05:13;10.40;55.30
19248;DHT22;9758;48.640;8.148;2023-04-26T00:07:40;10.40;55.40
19248;DHT22;9758;48.640;8.148;2023-04-26T00:10:09;10.30;55.40
19248;DHT22;9758;48.640;8.148;2023-04-26T00:12:36;10.30;55.40
19248;DHT22;9758;48.640;8.148;2023-04-26T00:15:06;10.20;55.40
19248;DHT22;9758;48.640;8.148;2023-04-26T00:17:34;10.20;55.40
19248;DHT22;9758;48.640;8.148;2023-04-26T00:20:00;10.10;55.50
19248;DHT22;9758;48.640;8.148;2023-04-26T00:22:28;10.10;55.50
19248;DHT22;9758;48.640;8.148;2023-04-26T00:24:55;10.00;55.50
19248;DHT22;9758;48.640;8.148;2023-04-26T00:27:25;10.00;55.50
19248;DHT22;9758;48.640;8.148;2023-04-26T00:29:51;9.90;55.60
19248;DHT22;9758;48.640;8.148;2023-04-26T00:32:18;9.90;55.60
19248;DHT22;9758;48.640;8.148;2023-04-26T00:34:45;9.90;55.60
19248;DHT22;9758;48.640;8.148;2023-04-26T00:37:12;9.80;55.60
19248;DHT22;9758;48.640;8.148;2023-04-26T00:39:39;9.80;55.70
19248;DHT22;9758;48.640;8.148;2023-04-26T00:42:05;9.80;55.80
19248;DHT22;9758;48.640;8.148;2023-04-26T00:44:33;9.80;55.80
19248;DHT22;9758;48.640;8.148;2023-04-26T00:47:00;9.70;55.80
19248;DHT22;9758;48.640;8.148;2023-04-26T00:49:27;9.70;55.80
19248;DHT22;9758;48.640;8.148;2023-04-26T00:51:54;9.70;55.80
19248;DHT22;9758;48.640;8.148;2023-04-26T00:54:21;9.70;55.80
19248;DHT22;9758;48.640;8.148;2023-04-26T00:56:48;9.70;56.40
19248;DHT22;9758;48.640;8.148;2023-04-26T00:59:17;9.70;55.80
19248;DHT22;9758;48.640;8.148;2023-04-26T01:01:46;9.70;55.80
19248;DHT22;9758;48.640;8.148;2023-04-26T01:04:13;9.70;55.80
19248;DHT22;9758;48.640;8.148;2023-04-26T01:06:40;9.60;55.70
19248;DHT22;9758;48.640;8.148;2023-04-26T01:09:07;9.60;55.70
19248;DHT22;9758;48.640;8.148;2023-04-26T01:11:36;9.60;55.70
19248;DHT22;9758;48.640;8.148;2023-04-26T01:14:04;9.60;55.70
19248;DHT22;9758;48.640;8.148;2023-04-26T01:16:33;9.60;55.70
19248;DHT22;9758;48.640;8.148;2023-04-26T01:19:07;9.60;55.70
19248;DHT22;9758;48.640;8.148;2023-04-26T01:21:35;9.50;55.70
19248;DHT22;9758;48.640;8.148;2023-04-26T01:24:04;9.50;55.70
19248;DHT22;9758;48.640;8.148;2023-04-26T01:26:31;9.50;55.70
19248;DHT22;9758;48.640;8.148;2023-04-26T01:28:58;9.40;55.60
19248;DHT22;9758;48.640;8.148;2023-04-26T01:31:24;9.40;55.60
19248;DHT22;9758;48.640;8.148;2023-04-26T01:33:51;9.40;55.70
19248;DHT22;9758;48.640;8.148;2023-04-26T01:36:18;9.30;55.70
19248;DHT22;9758;48.640;8.148;2023-04-26T01:38:45;9.30;55.80
19248;DHT22;9758;48.640;8.148;2023-04-26T01:41:13;9.30;55.80
19248;DHT22;9758;48.640;8.148;2023-04-26T01:43:39;9.20;55.80
19248;DHT22;9758;48.640;8.148;2023-04-26T01:46:06;9.20;55.80
19248;DHT22;9758;48.640;8.148;2023-04-26T01:48:33;9.20;55.80
19248;DHT22;9758;48.640;8.148;2023-04-26T01:50:59;9.20;55.80
19248;DHT22;9758;48.640;8.148;2023-04-26T01:53:26;9.10;55.80
19248;DHT22;9758;48.640;8.148;2023-04-26T01:55:53;9.10;56.00
19248;DHT22;9758;48.640;8.148;2023-04-26T01:58:22;9.10;56.00
19248;DHT22;9758;48.640;8.148;2023-04-26T02:00:48;9.10;56.00
19248;DHT22;9758;48.640;8.148;2023-04-26T02:03:15;9.10;56.00
19248;DHT22;9758;48.640;8.148;2023-04-26T02:05:42;9.00;56.00
19248;DHT22;9758;48.640;8.148;2023-04-26T02:08:09;9.00;56.00
19248;DHT22;9758;48.640;8.148;2023-04-26T02:10:36;9.10;56.00
19248;DHT22;9758;48.640;8.148;2023-04-26T02:13:02;9.00;56.00
19248;DHT22;9758;48.640;8.148;2023-04-26T02:15:30;9.00;55.90
19248;DHT22;9758;48.640;8.148;2023-04-26T02:17:57;9.00;56.50
19248;DHT22;9758;48.640;8.148;2023-04-26T02:20:24;9.00;55.90
19248;DHT22;9758;48.640;8.148;2023-04-26T02:22:51;9.00;55.90
19248;DHT22;9758;48.640;8.148;2023-04-26T02:25:17;9.00;55.90
19248;DHT22;9758;48.640;8.148;2023-04-26T02:27:44;8.90;55.90
19248;DHT22;9758;48.640;8.148;2023-04-26T02:30:11;8.90;55.90
19248;DHT22;9758;48.640;8.148;2023-04-26T02:32:39;8.90;55.90
19248;DHT22;9758;48.640;8.148;2023-04-26T02:35:07;8.90;56.00
19248;DHT22;9758;48.640;8.148;2023-04-26T02:37:35;8.90;56.00
19248;DHT22;9758;48.640;8.148;2023-04-26T02:40:02;8.80;56.00
19248;DHT22;9758;48.640;8.148;2023-04-26T02:42:30;8.80;56.00
19248;DHT22;9758;48.640;8.148;2023-04-26T02:44:56;8.80;56.00
19248;DHT22;9758;48.640;8.148;2023-04-26T02:47:23;8.80;56.10
19248;DHT22;9758;48.640;8.148;2023-04-26T02:49:52;8.70;56.00
19248;DHT22;9758;48.640;8.148;2023-04-26T02:52:18;8.70;56.10
19248;DHT22;9758;48.640;8.148;2023-04-26T02:54:45;8.70;56.00
19248;DHT22;9758;48.640;8.148;2023-04-26T02:57:12;8.60;56.00
19248;DHT22;9758;48.640;8.148;2023-04-26T02:59:39;8.60;56.00
19248;DHT22;9758;48.640;8.148;2023-04-26T03:02:05;8.60;56.00
19248;DHT22;9758;48.640;8.148;2023-04-26T03:04:32;8.50;56.00
19248;DHT22;9758;48.640;8.148;2023-04-26T03:07:01;8.50;56.00
19248;DHT22;9758;48.640;8.148;2023-04-26T03:09:28;8.50;56.10
19248;DHT22;9758;48.640;8.148;2023-04-26T03:11:55;8.40;56.10
19248;DHT22;9758;48.640;8.148;2023-04-26T03:14:22;8.40;56.10
19248;DHT22;9758;48.640;8.148;2023-04-26T03:16:48;8.40;56.20
19248;DHT22;9758;48.640;8.148;2023-04-26T03:19:15;8.30;56.20
19248;DHT22;9758;48.640;8.148;2023-04-26T03:21:42;8.20;56.20
19248;DHT22;9758;48.640;8.148;2023-04-26T03:24:10;8.20;56.20
19248;DHT22;9758;48.640;8.148;2023-04-26T03:26:37;8.20;56.20
19248;DHT22;9758;48.640;8.148;2023-04-26T03:29:04;8.20;56.30
19248;DHT22;9758;48.640;8.148;2023-04-26T03:31:31;8.10;56.30
19248;DHT22;9758;48.640;8.148;2023-04-26T03:33:57;8.10;56.30
19248;DHT22;9758;48.640;8.148;2023-04-26T03:36:24;8.10;56.30
19248;DHT22;9758;48.640;8.148;2023-04-26T03:38:53;8.00;56.30
19248;DHT22;9758;48.640;8.148;2023-04-26T03:41:21;8.00;56.30
19248;DHT22;9758;48.640;8.148;2023-04-26T03:43:48;8.00;56.30
19248;DHT22;9758;48.640;8.148;2023-04-26T03:46:15;8.00;56.30
19248;DHT22;9758;48.640;8.148;2023-04-26T03:48:41;8.00;56.30
19248;DHT22;9758;48.640;8.148;2023-04-26T03:51:08;8.00;56.30
19248;DHT22;9758;48.640;8.148;2023-04-26T03:53:35;7.90;56.30
19248;DHT22;9758;48.640;8.148;2023-04-26T03:56:02;7.90;56.20
19248;DHT22;9758;48.640;8.148;2023-04-26T03:58:30;7.90;56.30
19248;DHT22;9758;48.640;8.148;2023-04-26T04:00:56;7.90;56.30
19248;DHT22;9758;48.640;8.148;2023-04-26T04:03:23;7.80;56.30
19248;DHT22;9758;48.640;8.148;2023-04-26T04:05:50;7.80;56.30
19248;DHT22;9758;48.640;8.148;2023-04-26T04:08:17;7.80;56.30
19248;DHT22;9758;48.640;8.148;2023-04-26T04:10:44;7.80;56.30
19248;DHT22;9758;48.640;8.148;2023-04-26T04:13:10;7.80;56.40
19248;DHT22;9758;48.640;8.148;2023-04-26T04:15:38;7.80;56.40
19248;DHT22;9758;48.640;8.148;2023-04-26T04:18:05;7.80;56.40
19248;DHT22;9758;48.640;8.148;2023-04-26T04:20:32;7.70;56.30
19248;DHT22;9758;48.640;8.148;2023-04-26T04:22:59;7.70;56.30
19248;DHT22;9758;48.640;8.148;2023-04-26T04:25:26;7.70;56.40
19248;DHT22;9758;48.640;8.148;2023-04-26T04:27:54;7.70;56.40
19248;DHT22;9758;48.640;8.148;2023-04-26T04:30:21;7.70;56.50
19248;DHT22;9758;48.640;8.148;2023-04-26T04:32:50;7.70;56.60
19248;DHT22;9758;48.640;8.148;2023-04-26T04:35:17;7.70;56.60
19248;DHT22;9758;48.640;8.148;2023-04-26T04:37:44;7.70;56.60
19248;DHT22;9758;48.640;8.148;2023-04-26T04:40:11;7.70;56.70
19248;DHT22;9758;48.640;8.148;2023-04-26T04:42:38;7.70;56.70
19248;DHT22;9758;48.640;8.148;2023-04-26T04:45:06;7.80;56.80
19248;DHT22;9758;48.640;8.148;2023-04-26T04:47:33;7.80;56.80
19248;DHT22;9758;48.640;8.148;2023-04-26T04:50:04;7.80;56.80
19248;DHT22;9758;48.640;8.148;2023-04-26T04:52:31;7.90;56.90
19248;DHT22;9758;48.640;8.148;2023-04-26T04:54:58;8.00;56.90
19248;DHT22;9758;48.640;8.148;2023-04-26T04:57:25;8.00;56.90
19248;DHT22;9758;48.640;8.148;2023-04-26T04:59:52;8.10;57.00
19248;DHT22;9758;48.640;8.148;2023-04-26T05:02:19;8.20;56.90
19248;DHT22;9758;48.640;8.148;2023-04-26T05:04:46;8.20;56.90
19248;DHT22;9758;48.640;8.148;2023-04-26T05:07:14;8.30;56.90
19248;DHT22;9758;48.640;8.148;2023-04-26T05:09:42;8.30;56.90
19248;DHT22;9758;48.640;8.148;2023-04-26T05:12:10;8.40;56.90
19248;DHT22;9758;48.640;8.148;2023-04-26T05:14:37;8.50;56.90
19248;DHT22;9758;48.640;8.148;2023-04-26T05:17:05;8.60;56.90
19248;DHT22;9758;48.640;8.148;2023-04-26T05:19:31;8.60;56.80
19248;DHT22;9758;48.640;8.148;2023-04-26T05:21:58;8.70;56.80
19248;DHT22;9758;48.640;8.148;2023-04-26T05:24:28;8.70;56.70
19248;DHT22;9758;48.640;8.148;2023-04-26T05:26:57;8.80;56.70
19248;DHT22;9758;48.640;8.148;2023-04-26T05:29:27;8.90;57.30
19248;DHT22;9758;48.640;8.148;2023-04-26T05:31:54;8.90;56.70
19248;DHT22;9758;48.640;8.148;2023-04-26T05:34:21;9.00;56.70
19248;DHT22;9758;48.640;8.148;2023-04-26T05:36:48;9.00;56.60
19248;DHT22;9758;48.640;8.148;2023-04-26T05:39:16;9.10;56.60
19248;DHT22;9758;48.640;8.148;2023-04-26T05:41:44;9.10;56.60
19248;DHT22;9758;48.640;8.148;2023-04-26T05:44:12;9.10;56.60
19248;DHT22;9758;48.640;8.148;2023-04-26T05:46:39;9.20;56.60
19248;DHT22;9758;48.640;8.148;2023-04-26T05:49:05;9.20;56.60
19248;DHT22;9758;48.640;8.148;2023-04-26T05:51:57;9.20;56.50
19248;DHT22;9758;48.640;8.148;2023-04-26T05:54:24;9.30;56.50
19248;DHT22;9758;48.640;8.148;2023-04-26T05:56:52;9.30;56.40
19248;DHT22;9758;48.640;8.148;2023-04-26T05:59:19;9.30;56.50
19248;DHT22;9758;48.640;8.148;2023-04-26T06:01:47;9.30;56.50
19248;DHT22;9758;48.640;8.148;2023-04-26T06:04:14;9.40;56.60
19248;DHT22;9758;48.640;8.148;2023-04-26T06:06:41;9.40;56.70
19248;DHT22;9758;48.640;8.148;2023-04-26T06:09:09;9.40;56.70
19248;DHT22;9758;48.640;8.148;2023-04-26T06:11:49;9.50;56.80
19248;DHT22;9758;48.640;8.148;2023-04-26T06:14:22;9.60;56.80
19248;DHT22;9758;48.640;8.148;2023-04-26T06:16:53;9.60;56.60
19248;DHT22;9758;48.640;8.148;2023-04-26T06:19:36;9.70;56.70
19248;DHT22;9758;48.640;8.148;2023-04-26T06:22:17;9.80;56.60
19248;DHT22;9758;48.640;8.148;2023-04-26T06:24:48;9.90;56.60
19248;DHT22;9758;48.640;8.148;2023-04-26T06:34:26;10.10;56.60
19248;DHT22;9758;48.640;8.148;2023-04-26T09:45:46;14.30;54.40
19248;DHT22;9758;48.640;8.148;2023-04-26T09:48:18;14.30;53.90
19248;DHT22;9758;48.640;8.148;2023-04-26T09:51:08;14.30;54.00
19248;DHT22;9758;48.640;8.148;2023-04-26T09:53:39;14.30;53.80
19248;DHT22;9758;48.640;8.148;2023-04-26T09:56:16;14.30;53.70
19248;DHT22;9758;48.640;8.148;2023-04-26T09:59:03;14.30;53.70
19248;DHT22;9758;48.640;8.148;2023-04-26T10:02:22;14.30;53.40
19248;DHT22;9758;48.640;8.148;2023-04-26T10:04:58;14.30;53.70
19248;DHT22;9758;48.640;8.148;2023-04-26T10:08:07;14.40;53.90
19248;DHT22;9758;48.640;8.148;2023-04-26T10:14:26;14.50;53.50
19248;DHT22;9758;48.640;8.148;2023-04-26T10:27:07;14.70;53.70
19248;DHT22;9758;48.640;8.148;2023-04-26T10:30:06;14.90;53.70
19248;DHT22;9758;48.640;8.148;2023-04-26T10:36:00;15.30;53.50
19248;DHT22;9758;48.640;8.148;2023-04-26T10:39:17;15.40;52.90
19248;DHT22;9758;48.640;8.148;2023-04-26T10:45:40;15.60;52.90
19248;DHT22;9758;48.640;8.148;2023-04-26T10:48:23;15.70;52.60
19248;DHT22;9758;48.640;8.148;2023-04-26T10:51:07;15.70;51.40
19248;DHT22;9758;48.640;8.148;2023-04-26T10:54:00;15.50;52.10
19248;DHT22;9758;48.640;8.148;2023-04-26T10:56:50;15.40;52.30
19248;DHT22;9758;48.640;8.148;2023-04-26T10:59:27;15.40;52.30
19248;DHT22;9758;48.640;8.148;2023-04-26T11:02:04;15.40;51.80
19248;DHT22;9758;48.640;8.148;2023-04-26T11:04:49;15.30;52.40
19248;DHT22;9758;48.640;8.148;2023-04-26T11:07:35;15.30;52.40
19248;DHT22;9758;48.640;8.148;2023-04-26T11:10:07;15.40;52.70
19248;DHT22;9758;48.640;8.148;2023-04-26T11:13:00;15.50;52.60
19248;DHT22;9758;48.640;8.148;2023-04-26T11:15:30;15.70;52.20
19248;DHT22;9758;48.640;8.148;2023-04-26T11:18:03;15.80;51.90
19248;DHT22;9758;48.640;8.148;2023-04-26T11:20:31;15.80;52.00
19248;DHT22;9758;48.640;8.148;2023-04-26T11:22:58;15.80;52.20
19248;DHT22;9758;48.640;8.148;2023-04-26T11:25:46;15.90;52.20
19248;DHT22;9758;48.640;8.148;2023-04-26T11:28:36;16.00;51.80
19248;DHT22;9758;48.640;8.148;2023-04-26T13:56:18;18.00;48.30
19248;DHT22;9758;48.640;8.148;2023-04-26T14:06:54;17.40;48.90
19248;DHT22;9758;48.640;8.148;2023-04-26T14:40:09;16.80;49.00
19248;DHT22;9758;48.640;8.148;2023-04-26T15:15:25;18.40;47.70
19248;DHT22;9758;48.640;8.148;2023-04-26T15:17:52;18.60;47.40
19248;DHT22;9758;48.640;8.148;2023-04-26T15:20:27;18.90;49.20
19248;DHT22;9758;48.640;8.148;2023-04-26T15:23:15;19.60;49.80
19248;DHT22;9758;48.640;8.148;2023-04-26T15:25:42;20.60;49.40
19248;DHT22;9758;48.640;8.148;2023-04-26T15:28:37;21.60;49.70
19248;DHT22;9758;48.640;8.148;2023-04-26T15:31:09;22.70;47.50
19248;DHT22;9758;48.640;8.148;2023-04-26T15:33:54;23.30;45.70
19248;DHT22;9758;48.640;8.148;2023-04-26T15:36:30;23.60;46.30
19248;DHT22;9758;48.640;8.148;2023-04-26T15:39:02;24.20;46.70
19248;DHT22;9758;48.640;8.148;2023-04-26T15:41:30;24.50;45.10
19248;DHT22;9758;48.640;8.148;2023-04-26T15:44:03;24.80;46.10
19248;DHT22;9758;48.640;8.148;2023-04-26T15:46:42;25.50;46.20
19248;DHT22;9758;48.640;8.148;2023-04-26T15:49:25;26.60;45.80
19248;DHT22;9758;48.640;8.148;2023-04-26T15:52:07;27.20;44.50
19248;DHT22;9758;48.640;8.148;2023-04-26T15:54:36;27.20;43.10
19248;DHT22;9758;48.640;8.148;2023-04-26T16:10:59;27.80;44.20
19248;DHT22;9758;48.640;8.148;2023-04-26T16:13:26;28.40;42.10
19248;DHT22;9758;48.640;8.148;2023-04-26T16:15:58;28.60;42.20
19248;DHT22;9758;48.640;8.148;2023-04-26T16:18:25;28.90;42.60
19248;DHT22;9758;48.640;8.148;2023-04-26T16:20:52;29.20;43.10
19248;DHT22;9758;48.640;8.148;2023-04-26T16:23:31;29.70;41.80
19248;DHT22;9758;48.640;8.148;2023-04-26T16:26:08;29.80;41.70
19248;DHT22;9758;48.640;8.148;2023-04-26T16:28:35;29.80;41.70
19248;DHT22;9758;48.640;8.148;2023-04-26T16:31:02;29.80;42.20
19248;DHT22;9758;48.640;8.148;2023-04-26T16:33:30;30.00;42.10
19248;DHT22;9758;48.640;8.148;2023-04-26T16:35:57;30.30;38.20
19248;DHT22;9758;48.640;8.148;2023-04-26T16:38:27;30.10;40.00
19248;DHT22;9758;48.640;8.148;2023-04-26T16:40:54;29.70;40.60
19248;DHT22;9758;48.640;8.148;2023-04-26T16:43:24;29.60;40.30
19248;DHT22;9758;48.640;8.148;2023-04-26T16:45:58;29.60;40.30
19248;DHT22;9758;48.640;8.148;2023-04-26T16:48:25;29.20;40.30
19248;DHT22;9758;48.640;8.148;2023-04-26T16:50:52;28.60;40.30
19248;DHT22;9758;48.640;8.148;2023-04-26T16:53:19;27.90;40.00
19248;DHT22;9758;48.640;8.148;2023-04-26T16:55:47;27.30;40.00
19248;DHT22;9758;48.640;8.148;2023-04-26T16:58:14;26.50;40.10
19248;DHT22;9758;48.640;8.148;2023-04-26T17:00:42;25.70;40.70
19248;DHT22;9758;48.640;8.148;2023-04-26T17:03:16;25.10;41.10
19248;DHT22;9758;48.640;8.148;2023-04-26T17:05:44;24.50;41.20
19248;DHT22;9758;48.640;8.148;2023-04-26T17:08:11;24.10;42.60
19248;DHT22;9758;48.640;8.148;2023-04-26T17:10:39;23.70;41.00
19248;DHT22;9758;48.640;8.148;2023-04-26T17:13:06;23.10;41.30
19248;DHT22;9758;48.640;8.148;2023-04-26T17:15:33;22.70;42.40
19248;DHT22;9758;48.640;8.148;2023-04-26T17:18:10;22.50;43.00
19248;DHT22;9758;48.640;8.148;2023-04-26T17:20:37;22.40;43.20
19248;DHT22;9758;48.640;8.148;2023-04-26T17:23:05;22.40;43.10
19248;DHT22;9758;48.640;8.148;2023-04-26T17:25:33;22.60;43.30
19248;DHT22;9758;48.640;8.148;2023-04-26T17:28:00;22.80;43.40
19248;DHT22;9758;48.640;8.148;2023-04-26T17:30:26;23.20;43.40
19248;DHT22;9758;48.640;8.148;2023-04-26T17:32:53;23.80;43.30
19248;DHT22;9758;48.640;8.148;2023-04-26T17:35:21;24.30;43.00
19248;DHT22;9758;48.640;8.148;2023-04-26T17:37:48;24.90;42.00
19248;DHT22;9758;48.640;8.148;2023-04-26T17:40:16;25.30;41.50
19248;DHT22;9758;48.640;8.148;2023-04-26T17:42:46;25.40;41.50
19248;DHT22;9758;48.640;8.148;2023-04-26T17:48:54;26.00;41.00
19248;DHT22;9758;48.640;8.148;2023-04-26T17:51:23;26.30;40.10
19248;DHT22;9758;48.640;8.148;2023-04-26T17:53:50;26.30;40.60
19248;DHT22;9758;48.640;8.148;2023-04-26T17:56:18;26.00;40.10
19248;DHT22;9758;48.640;8.148;2023-04-26T17:58:46;25.70;39.80
19248;DHT22;9758;48.640;8.148;2023-04-26T18:01:13;25.10;40.00
19248;DHT22;9758;48.640;8.148;2023-04-26T18:03:40;24.50;40.20
19248;DHT22;9758;48.640;8.148;2023-04-26T18:06:10;24.00;40.70
19248;DHT22;9758;48.640;8.148;2023-04-26T18:08:39;23.50;40.90
19248;DHT22;9758;48.640;8.148;2023-04-26T18:11:06;23.00;41.30
19248;DHT22;9758;48.640;8.148;2023-04-26T18:13:33;22.50;41.50
19248;DHT22;9758;48.640;8.148;2023-04-26T18:16:14;22.00;41.90
19248;DHT22;9758;48.640;8.148;2023-04-26T18:18:42;21.50;42.10
19248;DHT22;9758;48.640;8.148;2023-04-26T18:21:14;21.10;42.40
19248;DHT22;9758;48.640;8.148;2023-04-26T18:23:42;20.70;42.60
19248;DHT22;9758;48.640;8.148;2023-04-26T18:26:12;20.30;42.80
19248;DHT22;9758;48.640;8.148;2023-04-26T18:28:57;20.00;42.80
19248;DHT22;9758;48.640;8.148;2023-04-26T18:31:25;19.60;43.10
19248;DHT22;9758;48.640;8.148;2023-04-26T18:33:53;19.30;43.30
19248;DHT22;9758;48.640;8.148;2023-04-26T18:36:35;19.00;43.50
19248;DHT22;9758;48.640;8.148;2023-04-26T18:41:53;18.40;43.80
19248;DHT22;9758;48.640;8.148;2023-04-26T18:44:23;18.10;44.00
19248;DHT22;9758;48.640;8.148;2023-04-26T18:46:51;17.90;44.10
19248;DHT22;9758;48.640;8.148;2023-04-26T18:49:20;17.70;44.30
19248;DHT22;9758;48.640;8.148;2023-04-26T18:51:48;17.50;44.50
19248;DHT22;9758;48.640;8.148;2023-04-26T18:54:15;17.30;44.60
19248;DHT22;9758;48.640;8.148;2023-04-26T18:56:42;17.10;44.70
19248;DHT22;9758;48.640;8.148;2023-04-26T18:59:11;17.00;44.80
19248;DHT22;9758;48.640;8.148;2023-04-26T19:01:38;16.80;44.90
19248;DHT22;9758;48.640;8.148;2023-04-26T19:04:05;16.70;45.00
19248;DHT22;9758;48.640;8.148;2023-04-26T19:06:33;16.60;45.00
19248;DHT22;9758;48.640;8.148;2023-04-26T19:09:01;16.40;45.00
19248;DHT22;9758;48.640;8.148;2023-04-26T19:11:28;16.30;45.20
19248;DHT22;9758;48.640;8.148;2023-04-26T19:13:55;16.20;45.20
19248;DHT22;9758;48.640;8.148;2023-04-26T19:16:24;16.20;45.40
19248;DHT22;9758;48.640;8.148;2023-04-26T19:18:51;16.10;45.40
19248;DHT22;9758;48.640;8.148;2023-04-26T19:21:18;16.00;45.50
19248;DHT22;9758;48.640;8.148;2023-04-26T19:23:45;15.90;45.50
19248;DHT22;9758;48.640;8.148;2023-04-26T19:26:12;15.80;45.50
19248;DHT22;9758;48.640;8.148;2023-04-26T19:28:39;15.70;45.60
19248;DHT22;9758;48.640;8.148;2023-04-26T19:31:07;15.70;45.70
19248;DHT22;9758;48.640;8.148;2023-04-26T19:33:36;15.60;45.70
19248;DHT22;9758;48.640;8.148;2023-04-26T19:36:05;15.50;45.70
19248;DHT22;9758;48.640;8.148;2023-04-26T19:38:32;15.50;45.80
19248;DHT22;9758;48.640;8.148;2023-04-26T19:41:00;15.40;45.80
19248;DHT22;9758;48.640;8.148;2023-04-26T19:43:27;15.40;45.90
19248;DHT22;9758;48.640;8.148;2023-04-26T19:45:54;15.30;45.90
19248;DHT22;9758;48.640;8.148;2023-04-26T19:48:22;15.20;45.90
19248;DHT22;9758;48.640;8.148;2023-04-26T19:50:50;15.20;46.00
19248;DHT22;9758;48.640;8.148;2023-04-26T19:53:17;15.10;46.00
19248;DHT22;9758;48.640;8.148;2023-04-26T19:55:45;15.10;46.10
19248;DHT22;9758;48.640;8.148;2023-04-26T19:58:11;15.00;46.20
19248;DHT22;9758;48.640;8.148;2023-04-26T20:00:38;15.00;46.20
19248;DHT22;9758;48.640;8.148;2023-04-26T20:03:05;14.90;46.20
19248;DHT22;9758;48.640;8.148;2023-04-26T20:05:32;14.80;46.30
19248;DHT22;9758;48.640;8.148;2023-04-26T20:08:01;14.80;46.30
19248;DHT22;9758;48.640;8.148;2023-04-26T20:10:34;14.70;46.30
19248;DHT22;9758;48.640;8.148;2023-04-26T20:13:01;14.70;46.40
19248;DHT22;9758;48.640;8.148;2023-04-26T20:15:28;14.70;46.50
19248;DHT22;9758;48.640;8.148;2023-04-26T20:17:55;14.60;46.50
19248;DHT22;9758;48.640;8.148;2023-04-26T20:20:22;14.50;46.50
19248;DHT22;9758;48.640;8.148;2023-04-26T20:22:50;14.50;46.50
19248;DHT22;9758;48.640;8.148;2023-04-26T20:25:18;14.50;46.60
19248;DHT22;9758;48.640;8.148;2023-04-26T20:27:45;14.40;46.60
19248;DHT22;9758;48.640;8.148;2023-04-26T20:30:14;14.40;46.60
19248;DHT22;9758;48.640;8.148;2023-04-26T20:32:42;14.30;46.60
19248;DHT22;9758;48.640;8.148;2023-04-26T20:35:09;14.30;46.60
19248;DHT22;9758;48.640;8.148;2023-04-26T20:37:37;14.20;46.70
19248;DHT22;9758;48.640;8.148;2023-04-26T20:40:06;14.20;46.70
19248;DHT22;9758;48.640;8.148;2023-04-26T20:42:38;14.10;46.80
19248;DHT22;9758;48.640;8.148;2023-04-26T20:45:08;14.10;46.80
19248;DHT22;9758;48.640;8.148;2023-04-26T20:47:35;14.10;46.80
19248;DHT22;9758;48.640;8.148;2023-04-26T20:50:03;14.00;46.90
19248;DHT22;9758;48.640;8.148;2023-04-26T20:52:30;14.00;46.90
19248;DHT22;9758;48.640;8.148;2023-04-26T20:54:57;14.00;46.90
19248;DHT22;9758;48.640;8.148;2023-04-26T20:57:24;13.90;46.90
19248;DHT22;9758;48.640;8.148;2023-04-26T20:59:52;13.90;47.00
19248;DHT22;9758;48.640;8.148;2023-04-26T21:02:19;13.80;47.00
19248;DHT22;9758;48.640;8.148;2023-04-26T21:04:47;13.80;47.00
19248;DHT22;9758;48.640;8.148;2023-04-26T21:07:14;13.70;47.00
19248;DHT22;9758;48.640;8.148;2023-04-26T21:09:41;13.70;47.00
19248;DHT22;9758;48.640;8.148;2023-04-26T21:12:08;13.70;47.00
19248;DHT22;9758;48.640;8.148;2023-04-26T21:14:36;13.60;47.00
19248;DHT22;9758;48.640;8.148;2023-04-26T21:17:05;13.60;47.10
19248;DHT22;9758;48.640;8.148;2023-04-26T21:19:32;13.60;47.10
19248;DHT22;9758;48.640;8.148;2023-04-26T21:21:59;13.60;47.20
19248;DHT22;9758;48.640;8.148;2023-04-26T21:24:26;13.50;47.20
19248;DHT22;9758;48.640;8.148;2023-04-26T21:26:52;13.50;47.30
19248;DHT22;9758;48.640;8.148;2023-04-26T21:29:19;13.40;47.30
19248;DHT22;9758;48.640;8.148;2023-04-26T21:31:46;13.40;47.30
19248;DHT22;9758;48.640;8.148;2023-04-26T21:34:14;13.40;47.30
19248;DHT22;9758;48.640;8.148;2023-04-26T21:36:41;13.40;47.30
19248;DHT22;9758;48.640;8.148;2023-04-26T21:39:15;13.30;47.30
19248;DHT22;9758;48.640;8.148;2023-04-26T21:41:42;13.30;47.30
19248;DHT22;9758;48.640;8.148;2023-04-26T21:44:09;13.30;48.00
19248;DHT22;9758;48.640;8.148;2023-04-26T21:46:36;13.30;47.40
19248;DHT22;9758;48.640;8.148;2023-04-26T21:49:02;13.30;47.40
19248;DHT22;9758;48.640;8.148;2023-04-26T21:51:30;13.20;47.40
19248;DHT22;9758;48.640;8.148;2023-04-26T21:53:57;13.20;47.40
19248;DHT22;9758;48.640;8.148;2023-04-26T21:56:24;13.20;47.40
19248;DHT22;9758;48.640;8.148;2023-04-26T21:58:51;13.10;47.40
19248;DHT22;9758;48.640;8.148;2023-04-26T22:01:18;13.10;47.40
19248;DHT22;9758;48.640;8.148;2023-04-26T22:03:44;13.10;47.50
19248;DHT22;9758;48.640;8.148;2023-04-26T22:06:11;13.00;47.50
19248;DHT22;9758;48.640;8.148;2023-04-26T22:08:39;13.00;47.60
19248;DHT22;9758;48.640;8.148;2023-04-26T22:11:06;13.00;47.60
19248;DHT22;9758;48.640;8.148;2023-04-26T22:13:33;13.00;47.60
19248;DHT22;9758;48.640;8.148;2023-04-26T22:16:00;13.00;47.70
19248;DHT22;9758;48.640;8.148;2023-04-26T22:18:27;12.90;47.60
19248;DHT22;9758;48.640;8.148;2023-04-26T22:20:53;12.90;47.70
19248;DHT22;9758;48.640;8.148;2023-04-26T22:23:20;12.90;47.80
19248;DHT22;9758;48.640;8.148;2023-04-26T22:25:48;12.90;47.80
19248;DHT22;9758;48.640;8.148;2023-04-26T22:28:15;12.90;47.80
19248;DHT22;9758;48.640;8.148;2023-04-26T22:30:42;12.80;47.80
19248;DHT22;9758;48.640;8.148;2023-04-26T22:33:09;12.80;47.80
19248;DHT22;9758;48.640;8.148;2023-04-26T22:35:36;12.80;47.90
19248;DHT22;9758;48.640;8.148;2023-04-26T22:38:03;12.70;47.90
19248;DHT22;9758;48.640;8.148;2023-04-26T22:40:30;12.70;47.90
19248;DHT22;9758;48.640;8.148;2023-04-26T22:42:58;12.70;48.00
19248;DHT22;9758;48.640;8.148;2023-04-26T22:45:25;12.70;48.00
19248;DHT22;9758;48.640;8.148;2023-04-26T22:47:52;12.70;48.00
19248;DHT22;9758;48.640;8.148;2023-04-26T22:50:19;12.70;48.00
19248;DHT22;9758;48.640;8.148;2023-04-26T22:52:54;12.70;48.10
19248;DHT22;9758;48.640;8.148;2023-04-26T22:55:21;12.60;48.10
19248;DHT22;9758;48.640;8.148;2023-04-26T22:57:48;12.70;48.00
19248;DHT22;9758;48.640;8.148;2023-04-26T23:00:16;12.60;48.00
19248;DHT22;9758;48.640;8.148;2023-04-26T23:02:44;12.60;48.00
19248;DHT22;9758;48.640;8.148;2023-04-26T23:05:11;12.70;48.10
19248;DHT22;9758;48.640;8.148;2023-04-26T23:07:38;12.70;48.10
19248;DHT22;9758;48.640;8.148;2023-04-26T23:10:06;12.60;48.10
19248;DHT22;9758;48.640;8.148;2023-04-26T23:12:33;12.60;48.10
19248;DHT22;9758;48.640;8.148;2023-04-26T23:15:00;12.60;48.10
19248;DHT22;9758;48.640;8.148;2023-04-26T23:17:29;12.60;48.20
19248;DHT22;9758;48.640;8.148;2023-04-26T23:19:58;12.60;48.10
19248;DHT22;9758;48.640;8.148;2023-04-26T23:22:25;12.60;48.20
19248;DHT22;9758;48.640;8.148;2023-04-26T23:24:52;12.60;48.20
19248;DHT22;9758;48.640;8.148;2023-04-26T23:27:19;12.50;48.20
19248;DHT22;9758;48.640;8.148;2023-04-26T23:29:46;12.50;48.20
19248;DHT22;9758;48.640;8.148;2023-04-26T23:32:15;12.50;48.20
19248;DHT22;9758;48.640;8.148;2023-04-26T23:34:43;12.50;48.20
19248;DHT22;9758;48.640;8.148;2023-04-26T23:37:09;12.50;48.30
19248;DHT22;9758;48.640;8.148;2023-04-26T23:39:36;12.50;48.30